createdAt,value
2019-03-20T07:32:49.957Z,36.93
2019-03-20T07:40:50.391Z,36.45
2019-03-20T07:43:27.042Z,34.98
2019-03-20T07:45:57.556Z,36.17
2019-03-20T07:48:32.055Z,34.35
2019-03-20T07:51:06.252Z,35.05
2019-03-20T07:53:41.389Z,35.60
2019-03-20T07:56:13.181Z,35.35
2019-03-20T07:58:45.677Z,35.88
2019-03-20T08:01:29.509Z,37.03
2019-03-20T08:04:21.917Z,36.15
2019-03-20T08:06:55.956Z,37.78
2019-03-20T08:09:37.022Z,38.48
2019-03-20T08:12:35.384Z,40.70
2019-03-20T08:15:15.257Z,41.23
2019-03-20T08:17:51.468Z,41.70
2019-03-20T08:20:29.902Z,48.58
2019-03-20T08:23:03.170Z,45.30
2019-03-20T08:25:34.110Z,47.38
2019-03-20T08:28:11.924Z,51.00
2019-03-20T08:42:52.441Z,53.68
2019-03-20T08:45:32.546Z,55.80
2019-03-20T08:48:28.179Z,53.63
2019-03-20T09:28:07.688Z,46.18
2019-03-20T09:30:37.613Z,45.00
2019-03-20T09:33:07.484Z,44.98
2019-03-20T09:35:37.332Z,47.55
2019-03-20T09:38:08.093Z,46.60
2019-03-20T09:40:38.070Z,48.38
2019-03-20T09:43:17.548Z,45.00
2019-03-20T09:45:43.213Z,44.30
2019-03-20T09:48:50.347Z,46.18
2019-03-20T09:54:07.669Z,44.73
2019-03-20T09:56:40.395Z,44.65
2019-03-20T09:59:13.749Z,45.78
2019-03-20T10:01:44.802Z,46.18
2019-03-20T10:04:19.364Z,47.13
2019-03-20T10:07:04.055Z,48.45
2019-03-20T10:09:38.417Z,49.98
2019-03-20T10:12:08.780Z,49.48
2019-03-20T10:14:38.698Z,46.42
2019-03-20T10:17:09.495Z,47.40
2019-03-20T10:19:39.393Z,47.83
2019-03-20T10:22:10.054Z,48.95
2019-03-20T10:24:47.197Z,50.23
2019-03-20T10:27:17.048Z,48.48
2019-03-20T10:29:48.736Z,47.95
2019-03-20T10:32:24.610Z,48.75
2019-03-20T10:34:54.997Z,48.33
2019-03-20T10:37:31.402Z,46.48
2019-03-20T10:40:10.123Z,48.45
2019-03-20T10:42:41.147Z,47.78
2019-03-20T10:45:14.917Z,49.48
2019-03-20T10:47:45.752Z,47.55
2019-03-20T10:50:25.533Z,46.92
2019-03-20T10:53:03.309Z,48.05
2019-03-20T10:55:28.659Z,48.05
2019-03-20T10:58:00.814Z,47.65
2019-03-20T11:00:31.760Z,49.40
2019-03-20T11:03:01.686Z,46.58
2019-03-20T11:05:34.859Z,46.55
2019-03-20T11:08:18.153Z,48.50
2019-03-20T11:10:52.657Z,46.95
2019-03-20T11:16:27.667Z,48.40
2019-03-20T11:19:00.455Z,49.03
2019-03-20T11:21:33.760Z,50.28
2019-03-20T11:24:09.456Z,48.65
2019-03-20T11:26:42.088Z,49.05
2019-03-20T11:29:21.326Z,47.30
2019-03-20T11:32:01.707Z,46.75
2019-03-20T11:59:10.240Z,48.25
